Time;durP1;ratioP1;P1;durP2;ratioP2;P2;SDS_P1;SDS_P2;PMS_P1;PMS_P2;Temp;Humidity;BMP_temperature;BMP_pressure;BME280_temperature;BME280_humidity;BME280_pressure;Samples;Min_cycle;Max_cycle;Signal;HPM_P1;HPM_P2
2024/03/29 00:00:25;;;;;;;1.33;1.23;;;3.20;99.90;;;;;;4981340;28;20054;-33
2024/03/29 00:02:50;;;;;;;1.30;1.30;;;3.20;99.90;;;;;;4983949;28;20646;-32
2024/03/29 00:05:16;;;;;;;1.52;1.42;;;3.20;99.90;;;;;;4976455;28;20066;-38
2024/03/29 00:07:42;;;;;;;1.90;1.75;;;3.30;99.90;;;;;;4978757;28;20030;-35
2024/03/29 00:10:07;;;;;;;2.90;1.50;;;3.40;99.90;;;;;;4979355;28;20529;-32
2024/03/29 00:12:33;;;;;;;1.00;1.00;;;3.40;99.90;;;;;;4984639;28;20034;-33
2024/03/29 00:14:59;;;;;;;1.17;1.17;;;3.40;99.90;;;;;;4979666;28;20113;-33
2024/03/29 00:17:24;;;;;;;0.80;0.80;;;3.50;99.90;;;;;;4983522;28;20109;-32
2024/03/29 00:19:50;;;;;;;1.13;1.00;;;3.50;99.90;;;;;;4987324;28;20065;-32
2024/03/29 00:22:15;;;;;;;1.42;1.13;;;3.50;99.90;;;;;;5003489;28;20031;-37
2024/03/29 00:24:41;;;;;;;1.65;1.13;;;3.50;99.90;;;;;;4978108;28;20689;-33
2024/03/29 00:27:06;;;;;;;1.88;1.25;;;3.50;99.90;;;;;;4982896;28;20158;-33
2024/03/29 00:29:32;;;;;;;1.30;1.30;;;3.40;99.90;;;;;;4976068;28;20031;-34
2024/03/29 00:31:58;;;;;;;1.65;1.25;;;3.40;99.90;;;;;;4977816;28;20053;-34
2024/03/29 00:34:23;;;;;;;1.95;1.30;;;3.30;99.90;;;;;;4978784;28;20062;-36
2024/03/29 00:36:49;;;;;;;1.38;1.27;;;3.30;99.90;;;;;;4982254;28;20069;-32
2024/03/29 00:39:14;;;;;;;1.60;1.42;;;3.20;99.90;;;;;;4984397;28;20030;-32
2024/03/29 00:41:40;;;;;;;1.00;1.00;;;3.30;99.90;;;;;;4982436;28;20046;-32
2024/03/29 00:44:06;;;;;;;1.85;1.35;;;3.40;99.90;;;;;;4985266;28;20472;-33
2024/03/29 00:46:31;;;;;;;1.73;1.05;;;3.60;99.90;;;;;;4985461;28;20019;-35
2024/03/29 00:48:57;;;;;;;0.98;0.95;;;3.70;99.90;;;;;;4979519;28;20022;-33
2024/03/29 00:51:22;;;;;;;1.55;1.45;;;3.80;99.90;;;;;;4980302;28;20030;-35
2024/03/29 00:53:48;;;;;;;1.40;1.30;;;3.80;99.90;;;;;;4983733;28;20038;-34
2024/03/29 00:56:15;;;;;;;1.83;1.60;;;3.70;99.90;;;;;;4978709;28;20109;-34
2024/03/29 00:58:41;;;;;;;1.85;1.75;;;3.50;99.90;;;;;;4981363;28;20391;-32
2024/03/29 01:01:06;;;;;;;2.58;1.70;;;3.30;99.90;;;;;;4984632;28;20042;-33
2024/03/29 01:03:32;;;;;;;1.85;1.60;;;3.30;99.90;;;;;;4986588;28;20038;-33
2024/03/29 01:05:58;;;;;;;1.60;1.50;;;3.20;99.90;;;;;;4988078;28;20040;-33
2024/03/29 01:08:23;;;;;;;1.15;1.02;;;3.20;99.90;;;;;;4984584;28;20027;-42
2024/03/29 01:10:49;;;;;;;1.75;1.60;;;3.20;99.90;;;;;;4985843;28;20121;-41
2024/03/29 01:13:15;;;;;;;0.90;0.90;;;3.10;99.90;;;;;;4986538;28;20019;-41
2024/03/29 01:15:40;;;;;;;1.33;1.23;;;3.10;99.90;;;;;;4980853;28;20042;-41
2024/03/29 01:18:06;;;;;;;1.10;1.10;;;3.10;99.90;;;;;;4983684;28;20037;-42
2024/03/29 01:20:32;;;;;;;1.05;1.05;;;3.20;99.90;;;;;;4986619;28;20030;-39
2024/03/29 01:22:57;;;;;;;1.25;1.15;;;3.30;99.90;;;;;;4983228;28;20022;-41
2024/03/29 01:25:24;;;;;;;1.15;1.15;;;3.40;99.90;;;;;;4980214;28;20026;-41
2024/03/29 01:27:49;;;;;;;0.88;0.85;;;3.50;99.90;;;;;;4986435;28;20054;-42
2024/03/29 01:30:15;;;;;;;0.93;0.93;;;3.60;99.90;;;;;;4977345;28;20534;-36
2024/03/29 01:32:41;;;;;;;1.10;1.00;;;3.70;99.90;;;;;;4983881;28;20042;-39
2024/03/29 01:35:07;;;;;;;1.27;1.00;;;3.70;99.90;;;;;;4985773;28;20664;-38
2024/03/29 01:37:32;;;;;;;0.90;0.90;;;3.50;99.90;;;;;;4987890;28;20066;-42
2024/03/29 01:39:58;;;;;;;0.80;0.80;;;3.50;99.90;;;;;;4985335;28;20044;-42
2024/03/29 01:42:24;;;;;;;0.88;0.80;;;3.60;99.90;;;;;;4983402;28;20033;-40
2024/03/29 01:44:49;;;;;;;0.80;0.80;;;3.60;99.90;;;;;;4979203;28;20045;-42
2024/03/29 01:47:17;;;;;;;1.08;0.90;;;3.50;99.90;;;;;;4979667;28;20030;-40
2024/03/29 01:49:43;;;;;;;1.20;0.80;;;3.50;99.90;;;;;;4983774;28;20026;-42
2024/03/29 01:52:09;;;;;;;0.80;0.80;;;3.60;99.90;;;;;;4982666;28;20031;-40
2024/03/29 01:54:34;;;;;;;0.75;0.75;;;3.60;99.90;;;;;;4984835;28;20038;-40
2024/03/29 01:57:00;;;;;;;1.52;1.00;;;3.60;99.90;;;;;;4981600;28;20058;-41
2024/03/29 01:59:27;;;;;;;0.80;0.80;;;3.50;99.90;;;;;;4985343;28;20174;-42
2024/03/29 02:01:53;;;;;;;1.08;0.98;;;3.50;99.90;;;;;;4986544;28;20066;-39
2024/03/29 02:04:19;;;;;;;0.80;0.80;;;3.40;99.90;;;;;;5004625;28;20065;-42
2024/03/29 02:06:45;;;;;;;0.93;0.93;;;3.30;99.90;;;;;;4985662;28;20026;-42
2024/03/29 02:09:10;;;;;;;1.98;1.77;;;3.30;99.90;;;;;;4984856;28;20031;-41
2024/03/29 02:11:36;;;;;;;1.20;1.20;;;3.30;99.90;;;;;;4983120;28;20515;-43
2024/03/29 02:14:03;;;;;;;1.60;0.90;;;3.30;99.90;;;;;;4981948;28;20026;-41
2024/03/29 02:16:28;;;;;;;0.85;0.85;;;3.30;99.90;;;;;;4985246;28;20023;-42
2024/03/29 02:18:54;;;;;;;1.33;1.00;;;3.30;99.90;;;;;;4981242;28;20508;-34
2024/03/29 02:21:19;;;;;;;1.17;1.10;;;3.10;99.90;;;;;;4985935;28;20053;-35
2024/03/29 02:23:50;;;;;;;0.80;0.80;;;3.10;99.90;;;;;;4984701;28;20030;-32
2024/03/29 02:26:16;;;;;;;0.90;0.90;;;3.10;99.90;;;;;;4981574;28;20027;-36
2024/03/29 02:28:41;;;;;;;1.10;1.10;;;3.10;99.90;;;;;;4976178;28;20019;-32
2024/03/29 02:31:08;;;;;;;1.05;1.05;;;3.10;99.90;;;;;;4980540;28;20077;-34
2024/03/29 02:33:33;;;;;;;0.73;0.70;;;3.10;99.90;;;;;;4981767;28;20046;-34
2024/03/29 02:35:59;;;;;;;1.75;1.42;;;3.00;99.90;;;;;;4982341;28;20034;-33
2024/03/29 02:38:24;;;;;;;0.90;0.90;;;3.00;99.90;;;;;;4985445;28;20535;-33
2024/03/29 02:40:50;;;;;;;1.65;0.85;;;3.00;99.90;;;;;;4988970;28;20039;-32
2024/03/29 02:43:16;;;;;;;0.98;0.98;;;3.00;99.90;;;;;;4986033;28;20125;-35
2024/03/29 02:45:41;;;;;;;1.02;1.02;;;3.10;99.90;;;;;;4988739;28;20512;-33
2024/03/29 02:48:07;;;;;;;1.17;1.17;;;3.20;99.90;;;;;;4984491;28;20559;-36
2024/03/29 02:50:33;;;;;;;0.73;0.73;;;3.20;99.90;;;;;;4988354;28;20022;-35
2024/03/29 02:52:58;;;;;;;0.90;0.90;;;3.20;99.90;;;;;;4986553;28;20026;-36
2024/03/29 02:55:24;;;;;;;0.73;0.73;;;3.20;99.90;;;;;;4984522;28;20116;-36
2024/03/29 02:57:49;;;;;;;0.90;0.90;;;3.40;99.90;;;;;;4989549;28;20029;-34
2024/03/29 03:00:15;;;;;;;0.75;0.75;;;3.40;99.90;;;;;;4984809;28;20172;-38
2024/03/29 03:02:41;;;;;;;0.77;0.77;;;3.50;99.90;;;;;;4986543;28;20031;-32
2024/03/29 03:05:07;;;;;;;1.42;0.80;;;3.50;99.90;;;;;;4987794;28;20109;-34
2024/03/29 03:13:03;;;;;;;0.75;0.75;;;3.50;99.90;;;;;;4989535;28;20049;-40
2024/03/29 03:15:28;;;;;;;0.77;0.77;;;3.40;99.90;;;;;;4987763;28;20038;-34
2024/03/29 03:17:54;;;;;;;0.70;0.70;;;3.30;99.90;;;;;;4985669;28;20049;-33
2024/03/29 03:20:19;;;;;;;2.15;0.80;;;3.20;99.90;;;;;;4987219;28;20043;-34
2024/03/29 03:22:45;;;;;;;0.90;0.90;;;3.20;99.90;;;;;;4988370;28;20066;-36
2024/03/29 03:25:11;;;;;;;0.73;0.73;;;3.20;99.90;;;;;;4985907;28;20113;-33
2024/03/29 03:27:36;;;;;;;0.88;0.88;;;3.10;99.90;;;;;;4985414;28;20022;-39
2024/03/29 03:30:02;;;;;;;1.00;1.00;;;3.10;99.90;;;;;;4984743;28;20089;-34
2024/03/29 03:32:28;;;;;;;0.88;0.88;;;3.20;99.90;;;;;;4982129;28;20118;-32
2024/03/29 03:34:53;;;;;;;1.10;1.10;;;3.10;99.90;;;;;;4983266;28;20035;-33
2024/03/29 03:37:19;;;;;;;1.20;1.10;;;3.00;99.90;;;;;;4983763;28;20049;-33
2024/03/29 03:39:44;;;;;;;0.82;0.82;;;2.90;99.90;;;;;;4981103;28;20039;-32
2024/03/29 03:42:10;;;;;;;2.83;0.90;;;2.90;99.90;;;;;;4990641;28;20026;-33
2024/03/29 03:44:35;;;;;;;0.90;0.90;;;2.90;99.90;;;;;;4992471;28;20026;-33
2024/03/29 03:47:01;;;;;;;1.20;1.17;;;2.90;99.90;;;;;;4992540;28;20407;-32
2024/03/29 03:49:27;;;;;;;0.95;0.95;;;3.00;99.90;;;;;;4986469;28;20022;-32
2024/03/29 03:51:52;;;;;;;1.52;1.52;;;3.00;99.90;;;;;;4986275;28;20030;-35
2024/03/29 03:54:18;;;;;;;1.45;1.05;;;3.00;99.90;;;;;;4987896;28;20022;-39
2024/03/29 03:56:43;;;;;;;1.17;1.17;;;2.90;99.90;;;;;;4983427;28;20099;-42
2024/03/29 03:59:09;;;;;;;1.38;1.13;;;2.90;99.90;;;;;;4984185;28;20030;-40
2024/03/29 04:01:35;;;;;;;0.90;0.90;;;2.90;99.90;;;;;;4982564;28;20034;-41
2024/03/29 04:04:01;;;;;;;0.88;0.88;;;2.90;99.90;;;;;;4986539;28;20054;-41
2024/03/29 04:06:26;;;;;;;1.50;1.40;;;2.90;99.90;;;;;;4984453;28;20100;-39
2024/03/29 04:08:52;;;;;;;0.80;0.80;;;2.80;99.90;;;;;;4988025;28;20026;-37
2024/03/29 04:11:18;;;;;;;0.88;0.88;;;2.70;99.90;;;;;;4973426;28;20038;-42
2024/03/29 04:13:45;;;;;;;0.85;0.85;;;2.70;99.90;;;;;;4982087;28;20038;-41
2024/03/29 04:16:11;;;;;;;0.98;0.98;;;2.60;99.90;;;;;;4981942;28;20038;-41
2024/03/29 04:18:37;;;;;;;0.77;0.77;;;2.60;99.90;;;;;;4985180;28;20476;-42
2024/03/29 04:21:04;;;;;;;1.10;1.10;;;2.70;99.90;;;;;;4986760;28;20026;-38
2024/03/29 04:23:30;;;;;;;1.20;1.13;;;2.70;99.90;;;;;;4981605;28;20575;-42
2024/03/29 04:25:57;;;;;;;0.88;0.88;;;2.70;99.90;;;;;;5009178;28;20045;-38
2024/03/29 04:28:23;;;;;;;1.08;1.08;;;2.70;99.90;;;;;;4985873;28;20023;-37
2024/03/29 04:30:59;;;;;;;0.70;0.70;;;2.70;99.90;;;;;;4978089;28;20054;-41
2024/03/29 04:33:25;;;;;;;0.73;0.73;;;2.70;99.90;;;;;;4982555;28;20107;-43
2024/03/29 04:35:56;;;;;;;0.93;0.93;;;2.60;99.90;;;;;;4998141;28;20554;-41
2024/03/29 04:38:23;;;;;;;0.75;0.75;;;2.70;99.90;;;;;;4986460;28;20031;-40
2024/03/29 04:40:54;;;;;;;0.73;0.70;;;2.80;99.90;;;;;;4987240;28;20056;-39
2024/03/29 04:43:22;;;;;;;0.85;0.85;;;2.80;99.90;;;;;;4979248;28;20117;-41
2024/03/29 04:45:48;;;;;;;1.33;0.90;;;2.80;99.90;;;;;;4985173;28;20524;-41
2024/03/29 04:48:14;;;;;;;0.75;0.75;;;2.80;99.90;;;;;;4984261;28;20038;-41
2024/03/29 04:50:40;;;;;;;0.70;0.70;;;2.80;99.90;;;;;;4983343;28;20030;-41
2024/03/29 04:53:07;;;;;;;0.90;0.90;;;2.90;99.90;;;;;;4987186;28;20034;-41
2024/03/29 04:55:33;;;;;;;0.90;0.90;;;2.90;99.90;;;;;;4987459;28;20027;-41
2024/03/29 04:57:59;;;;;;;0.70;0.70;;;3.00;99.90;;;;;;4988675;28;20550;-40
2024/03/29 05:00:25;;;;;;;0.70;0.70;;;3.10;99.90;;;;;;4983838;28;20109;-40
2024/03/29 05:02:51;;;;;;;0.70;0.70;;;3.20;99.90;;;;;;4981759;28;20065;-40
2024/03/29 05:05:16;;;;;;;0.38;0.38;;;3.20;99.90;;;;;;4985289;28;20092;-39
2024/03/29 05:07:42;;;;;;;0.80;0.80;;;3.20;99.90;;;;;;4986562;28;20056;-41
2024/03/29 05:10:09;;;;;;;0.60;0.60;;;3.20;99.90;;;;;;4987475;28;20034;-42
2024/03/29 05:12:35;;;;;;;0.70;0.70;;;3.20;99.90;;;;;;4997202;28;20484;-39
2024/03/29 05:15:01;;;;;;;0.60;0.60;;;3.20;99.90;;;;;;4986509;28;20034;-40
2024/03/29 05:17:27;;;;;;;0.80;0.80;;;3.30;99.90;;;;;;4979424;28;20034;-39
2024/03/29 05:19:53;;;;;;;0.77;0.77;;;3.30;99.90;;;;;;4980307;28;20042;-37
2024/03/29 05:22:19;;;;;;;0.80;0.80;;;3.30;99.90;;;;;;4994862;28;20053;-41
2024/03/29 05:24:45;;;;;;;0.60;0.60;;;3.40;99.90;;;;;;4986213;28;20468;-41
2024/03/29 05:27:12;;;;;;;0.60;0.60;;;3.40;99.90;;;;;;4990348;28;20031;-40
2024/03/29 05:29:37;;;;;;;0.60;0.60;;;3.40;99.90;;;;;;4983968;28;20034;-41
2024/03/29 05:32:04;;;;;;;0.60;0.60;;;3.40;99.90;;;;;;4985823;28;20038;-36
2024/03/29 05:34:30;;;;;;;0.80;0.80;;;3.50;99.90;;;;;;4985211;28;20026;-40
2024/03/29 05:36:55;;;;;;;0.90;0.90;;;3.50;99.90;;;;;;4981264;28;20030;-41
2024/03/29 05:39:21;;;;;;;0.68;0.68;;;3.60;99.90;;;;;;4987300;28;20030;-38
2024/03/29 05:41:46;;;;;;;0.70;0.70;;;3.50;99.90;;;;;;4981986;28;20500;-40
2024/03/29 05:44:13;;;;;;;0.73;0.60;;;3.60;99.90;;;;;;4984050;28;20041;-40
2024/03/29 05:46:40;;;;;;;0.70;0.70;;;3.60;99.90;;;;;;4976357;28;20022;-41
2024/03/29 05:49:06;;;;;;;0.77;0.77;;;3.60;99.90;;;;;;4982169;28;20441;-41
2024/03/29 05:51:31;;;;;;;0.70;0.70;;;3.70;99.90;;;;;;4982611;28;20122;-40
2024/03/29 05:53:57;;;;;;;0.73;0.70;;;3.70;99.90;;;;;;4986929;28;20173;-41
2024/03/29 05:56:22;;;;;;;0.80;0.80;;;3.80;99.90;;;;;;4984433;28;20531;-35
2024/03/29 05:58:48;;;;;;;0.90;0.90;;;3.80;99.90;;;;;;4981327;28;20084;-41
2024/03/29 06:01:14;;;;;;;1.15;1.10;;;3.90;99.90;;;;;;4975118;28;20038;-39
2024/03/29 06:03:39;;;;;;;0.77;0.77;;;3.90;99.90;;;;;;4965457;28;20038;-40
2024/03/29 06:06:07;;;;;;;0.80;0.80;;;4.00;99.90;;;;;;4970329;28;20482;-41
2024/03/29 06:08:32;;;;;;;0.60;0.60;;;4.00;99.90;;;;;;4963100;28;20050;-41
2024/03/29 06:10:59;;;;;;;0.70;0.70;;;4.10;99.90;;;;;;4966890;28;20034;-41
2024/03/29 06:18:53;;;;;;;0.73;0.73;;;4.20;99.90;;;;;;4959586;28;20038;-37
2024/03/29 06:21:18;;;;;;;0.80;0.80;;;4.20;99.90;;;;;;4966084;28;20035;-38
2024/03/29 06:23:44;;;;;;;0.70;0.70;;;4.30;99.90;;;;;;4967740;28;20070;-41
2024/03/29 06:26:10;;;;;;;0.60;0.60;;;4.40;99.90;;;;;;4966018;28;20110;-40
2024/03/29 06:28:35;;;;;;;0.90;0.90;;;4.40;99.90;;;;;;4969285;28;20784;-39
2024/03/29 06:31:02;;;;;;;1.00;0.90;;;4.40;99.90;;;;;;4974257;28;20054;-42
2024/03/29 06:33:27;;;;;;;0.73;0.73;;;4.50;99.90;;;;;;4988485;28;20476;-41
2024/03/29 06:35:54;;;;;;;0.70;0.70;;;4.50;99.90;;;;;;4983603;28;20032;-40
2024/03/29 06:38:20;;;;;;;1.00;0.90;;;4.50;99.90;;;;;;4985979;28;20062;-41
2024/03/29 06:40:46;;;;;;;0.73;0.73;;;4.60;99.90;;;;;;4988304;28;20084;-39
2024/03/29 06:43:12;;;;;;;1.27;0.82;;;4.70;99.90;;;;;;4983652;28;20023;-40
2024/03/29 06:45:42;;;;;;;0.90;0.90;;;4.70;99.90;;;;;;4990423;28;20464;-40
2024/03/29 06:48:08;;;;;;;0.80;0.80;;;4.80;99.90;;;;;;4982028;28;20041;-41
2024/03/29 06:50:34;;;;;;;0.80;0.80;;;4.90;99.90;;;;;;4978106;28;20034;-40
2024/03/29 06:53:00;;;;;;;0.73;0.73;;;5.00;99.90;;;;;;4982265;28;20035;-39
2024/03/29 06:55:26;;;;;;;2.08;0.90;;;5.10;99.90;;;;;;4982293;28;20302;-38
2024/03/29 06:57:51;;;;;;;0.70;0.70;;;5.20;99.90;;;;;;4980554;28;20121;-41
2024/03/29 07:00:17;;;;;;;0.82;0.82;;;5.30;99.90;;;;;;4982743;28;20035;-40
2024/03/29 07:02:43;;;;;;;0.85;0.80;;;5.40;99.90;;;;;;4981941;28;20061;-42
2024/03/29 07:05:11;;;;;;;2.25;1.13;;;5.50;99.90;;;;;;4984979;28;20105;-41
2024/03/29 07:07:37;;;;;;;0.70;0.70;;;5.50;99.90;;;;;;4988319;28;20042;-35
2024/03/29 07:10:03;;;;;;;0.70;0.70;;;5.60;99.90;;;;;;4977373;28;20022;-37
2024/03/29 07:12:29;;;;;;;0.80;0.80;;;5.80;99.90;;;;;;4988592;28;20109;-41
2024/03/29 07:14:54;;;;;;;0.80;0.80;;;5.90;99.90;;;;;;4981974;28;20105;-41
2024/03/29 07:17:20;;;;;;;0.70;0.70;;;6.20;99.90;;;;;;4978843;28;20018;-40
2024/03/29 07:19:45;;;;;;;0.70;0.70;;;6.40;99.90;;;;;;4982608;28;20040;-40
2024/03/29 07:22:11;;;;;;;0.77;0.77;;;6.60;99.90;;;;;;4991255;28;20042;-41
2024/03/29 07:24:37;;;;;;;0.80;0.80;;;6.70;99.90;;;;;;4981967;28;20027;-38
2024/03/29 07:27:02;;;;;;;1.30;1.20;;;6.70;99.90;;;;;;4979917;28;20031;-39
2024/03/29 07:29:28;;;;;;;0.80;0.80;;;6.70;99.90;;;;;;4993915;28;20074;-40
2024/03/29 07:31:54;;;;;;;0.70;0.70;;;6.80;99.90;;;;;;4978224;28;20026;-39
2024/03/29 07:34:20;;;;;;;1.30;1.00;;;6.90;99.90;;;;;;4979817;28;20476;-39
2024/03/29 07:36:46;;;;;;;0.80;0.80;;;7.00;99.90;;;;;;4981354;28;20019;-41
2024/03/29 07:39:11;;;;;;;0.85;0.85;;;7.20;99.90;;;;;;4976215;28;20065;-41
2024/03/29 07:41:37;;;;;;;0.70;0.70;;;7.20;99.90;;;;;;4977371;28;20053;-41
2024/03/29 07:44:03;;;;;;;0.80;0.80;;;7.30;99.90;;;;;;4981086;28;20030;-40
2024/03/29 07:46:33;;;;;;;1.10;1.00;;;7.30;99.90;;;;;;4987711;28;20057;-41
2024/03/29 07:48:58;;;;;;;1.05;1.05;;;7.30;99.90;;;;;;4983869;28;20026;-40
2024/03/29 07:51:24;;;;;;;1.00;1.00;;;7.30;99.90;;;;;;4987108;28;20039;-41
2024/03/29 07:53:50;;;;;;;0.80;0.80;;;7.30;99.90;;;;;;4990526;28;20030;-40
2024/03/29 07:56:16;;;;;;;1.30;1.10;;;7.30;99.90;;;;;;4988383;28;20042;-40
2024/03/29 07:58:42;;;;;;;0.90;0.90;;;7.30;99.90;;;;;;4982062;28;20092;-37
2024/03/29 08:01:08;;;;;;;0.80;0.80;;;7.40;99.90;;;;;;4986731;28;20070;-41
2024/03/29 08:03:34;;;;;;;0.65;0.65;;;7.40;99.90;;;;;;4982422;28;20074;-41
2024/03/29 08:06:06;;;;;;;0.80;0.80;;;7.40;99.90;;;;;;4978865;28;20030;-39
2024/03/29 08:08:32;;;;;;;1.00;1.00;;;7.50;99.90;;;;;;4981339;28;20576;-41
2024/03/29 08:10:58;;;;;;;1.00;1.00;;;7.50;99.90;;;;;;4981269;28;20055;-41
2024/03/29 08:13:25;;;;;;;0.90;0.90;;;7.50;99.90;;;;;;4984473;28;20033;-41
2024/03/29 08:15:58;;;;;;;0.90;0.90;;;7.50;99.90;;;;;;4983689;28;20547;-39
2024/03/29 08:18:24;;;;;;;4.80;2.28;;;7.60;99.90;;;;;;4984044;28;20621;-39
2024/03/29 08:20:50;;;;;;;1.60;1.50;;;7.60;99.90;;;;;;5001425;28;20034;-40
2024/03/29 08:23:15;;;;;;;1.40;1.30;;;7.60;99.90;;;;;;4982246;28;20121;-36
2024/03/29 08:25:41;;;;;;;1.60;1.50;;;7.60;99.90;;;;;;4983765;28;20502;-41
2024/03/29 08:28:06;;;;;;;3.20;1.50;;;7.60;99.90;;;;;;4985030;28;20018;-38
2024/03/29 08:30:34;;;;;;;1.20;1.10;;;7.70;99.90;;;;;;4987287;28;20058;-41
2024/03/29 08:33:04;;;;;;;1.30;1.20;;;7.70;99.90;;;;;;4980896;28;20030;-39
2024/03/29 08:35:30;;;;;;;1.80;1.27;;;7.80;99.90;;;;;;4981497;28;20133;-41
2024/03/29 08:37:56;;;;;;;1.48;1.38;;;7.80;99.90;;;;;;4985210;28;20491;-40
2024/03/29 08:40:22;;;;;;;1.65;1.50;;;7.80;99.90;;;;;;4983873;28;20051;-41
2024/03/29 08:42:48;;;;;;;1.92;1.42;;;7.90;99.90;;;;;;4984487;28;20038;-37
2024/03/29 08:45:14;;;;;;;1.80;1.58;;;8.00;99.90;;;;;;4973087;28;20034;-38
2024/03/29 08:47:39;;;;;;;2.03;1.92;;;8.10;99.90;;;;;;4984148;28;20058;-41
2024/03/29 08:50:05;;;;;;;2.35;1.33;;;8.20;99.90;;;;;;4977568;28;20058;-40
2024/03/29 08:52:31;;;;;;;1.85;1.60;;;8.30;99.90;;;;;;4981429;28;20038;-41
2024/03/29 08:54:57;;;;;;;2.53;1.95;;;8.30;99.90;;;;;;4977142;28;20492;-40
2024/03/29 08:57:22;;;;;;;1.75;1.60;;;8.40;99.90;;;;;;4981535;28;20648;-38
2024/03/29 08:59:48;;;;;;;2.05;1.40;;;8.40;99.90;;;;;;5003586;28;21420;-38
2024/03/29 09:02:13;;;;;;;2.00;1.48;;;8.50;99.90;;;;;;4984645;28;20042;-40
2024/03/29 09:04:39;;;;;;;1.85;1.63;;;8.60;99.90;;;;;;4989530;28;20137;-41
2024/03/29 09:07:05;;;;;;;1.38;1.27;;;8.70;99.90;;;;;;4985064;28;20018;-39
2024/03/29 09:09:34;;;;;;;1.40;1.30;;;8.80;99.90;;;;;;4981869;28;20045;-40
2024/03/29 09:12:00;;;;;;;1.48;1.30;;;8.90;99.90;;;;;;4983231;28;20026;-37
2024/03/29 09:14:27;;;;;;;1.52;1.30;;;8.90;99.90;;;;;;4985161;28;20037;-40
2024/03/29 09:16:53;;;;;;;1.50;1.40;;;9.00;99.90;;;;;;4986717;28;20038;-39
2024/03/29 09:19:18;;;;;;;1.55;1.45;;;9.20;99.90;;;;;;4985363;28;20476;-32
2024/03/29 09:21:45;;;;;;;1.70;1.60;;;9.30;99.90;;;;;;4988011;28;20101;-32
2024/03/29 09:24:11;;;;;;;2.10;1.70;;;9.40;99.90;;;;;;4988843;28;20041;-34
2024/03/29 09:26:37;;;;;;;1.92;1.60;;;9.40;99.90;;;;;;4988496;28;20569;-34
2024/03/29 09:29:02;;;;;;;1.40;1.30;;;9.40;99.90;;;;;;4987247;28;20027;-34
2024/03/29 09:31:28;;;;;;;2.75;1.70;;;9.40;99.90;;;;;;4997692;28;20022;-32
2024/03/29 09:33:57;;;;;;;1.40;1.30;;;9.50;99.90;;;;;;4992223;28;20022;-31
2024/03/29 09:36:23;;;;;;;1.75;1.52;;;9.50;99.90;;;;;;4987563;28;20259;-32
2024/03/29 09:38:52;;;;;;;3.22;1.50;;;9.60;99.90;;;;;;4987938;28;20038;-33
2024/03/29 09:41:19;;;;;;;1.30;1.23;;;9.60;99.90;;;;;;4983442;28;20051;-32
2024/03/29 09:43:47;;;;;;;1.42;1.20;;;9.70;99.90;;;;;;4988417;28;20032;-32
2024/03/29 09:46:16;;;;;;;1.30;1.20;;;9.90;99.90;;;;;;4989325;28;20030;-34
2024/03/29 09:48:43;;;;;;;1.83;1.30;;;10.00;99.90;;;;;;4987735;28;20065;-33
2024/03/29 09:51:09;;;;;;;1.45;1.20;;;10.10;99.90;;;;;;4990768;28;20022;-32
2024/03/29 09:53:38;;;;;;;1.10;1.00;;;10.40;99.90;;;;;;4987519;28;20026;-33
2024/03/29 09:56:07;;;;;;;;;;;10.50;99.90;;;;;;4993041;28;20480;-33
2024/03/29 09:58:34;;;;;;;2.13;1.10;;;10.80;99.90;;;;;;4992840;28;19917;-31
2024/03/29 10:01:05;;;;;;;1.35;1.25;;;10.90;99.90;;;;;;4987272;28;20046;-35
2024/03/29 10:03:34;;;;;;;2.15;1.15;;;10.90;99.90;;;;;;4990481;28;20026;-32
2024/03/29 10:06:01;;;;;;;1.73;1.27;;;11.00;99.90;;;;;;4990834;28;20105;-32
2024/03/29 10:08:27;;;;;;;1.30;1.20;;;11.10;99.90;;;;;;4989342;28;20034;-32
2024/03/29 10:10:56;;;;;;;2.50;1.48;;;11.20;99.90;;;;;;4994234;28;20027;-32
2024/03/29 10:13:23;;;;;;;2.28;1.48;;;11.20;99.90;;;;;;4993221;28;20061;-32
2024/03/29 10:15:56;;;;;;;1.65;1.55;;;11.30;99.90;;;;;;4988540;28;20026;-32
2024/03/29 10:18:23;;;;;;;1.10;1.10;;;11.30;99.90;;;;;;4994669;28;20034;-32
2024/03/29 10:21:03;;;;;;;1.20;1.10;;;11.50;99.90;;;;;;4984706;28;20102;-32
2024/03/29 10:23:29;;;;;;;1.63;1.20;;;11.80;99.90;;;;;;4991087;28;20041;-31
2024/03/29 10:25:55;;;;;;;1.85;1.30;;;12.00;99.90;;;;;;4992072;28;20022;-38
2024/03/29 10:28:21;;;;;;;1.83;1.10;;;12.20;99.90;;;;;;4985069;28;20084;-41
2024/03/29 10:30:46;;;;;;;0.98;0.95;;;12.20;99.90;;;;;;4987172;28;20396;-40
2024/03/29 10:33:13;;;;;;;1.63;0.98;;;12.00;99.90;;;;;;4985625;28;20030;-41
2024/03/29 10:35:42;;;;;;;0.90;0.90;;;12.00;99.90;;;;;;4986104;28;20827;-41
2024/03/29 10:38:09;;;;;;;1.20;1.10;;;12.00;99.90;;;;;;4987312;28;20072;-33
2024/03/29 10:40:41;;;;;;;1.37;1.20;;;12.00;99.90;;;;;;4979985;28;20065;-32
2024/03/29 10:43:12;;;;;;;1.15;0.98;;;12.20;99.90;;;;;;4984825;28;20034;-37
2024/03/29 10:45:38;;;;;;;1.30;1.20;;;12.40;99.90;;;;;;4988132;28;20480;-33
2024/03/29 10:48:07;;;;;;;1.08;0.88;;;12.50;99.90;;;;;;4986970;28;20482;-36
2024/03/29 10:50:39;;;;;;;1.00;1.00;;;12.40;99.90;;;;;;4983784;28;20630;-33
2024/03/29 10:53:05;;;;;;;1.60;1.13;;;12.30;99.90;;;;;;4982113;28;20157;-34
2024/03/29 10:55:33;;;;;;;1.33;1.23;;;12.10;99.90;;;;;;5000021;28;20049;-36
2024/03/29 10:58:00;;;;;;;1.48;1.30;;;12.00;99.90;;;;;;4986929;28;20030;-32
2024/03/29 11:00:29;;;;;;;1.92;1.33;;;11.90;99.90;;;;;;4985669;28;20477;-34
2024/03/29 11:02:58;;;;;;;2.97;1.38;;;11.80;99.90;;;;;;4982239;28;20037;-34
2024/03/29 11:05:26;;;;;;;1.60;1.50;;;11.80;99.90;;;;;;4985880;28;20044;-32
2024/03/29 11:07:53;;;;;;;1.30;1.20;;;11.80;99.90;;;;;;4981340;28;20046;-32
2024/03/29 11:10:47;;;;;;;1.40;1.30;;;11.80;99.90;;;;;;4986547;28;20738;-32
2024/03/29 11:13:34;;;;;;;1.40;1.30;;;11.90;99.90;;;;;;4985567;28;20030;-34
2024/03/29 11:16:00;;;;;;;1.40;1.30;;;12.00;99.90;;;;;;4984862;28;20034;-40
2024/03/29 11:18:28;;;;;;;2.35;1.60;;;12.20;99.90;;;;;;4985194;28;20042;-38
2024/03/29 11:20:55;;;;;;;1.40;1.30;;;12.30;99.90;;;;;;4985219;28;20061;-34
2024/03/29 11:23:21;;;;;;;1.60;1.00;;;12.20;99.90;;;;;;4980610;28;20034;-36
2024/03/29 11:25:55;;;;;;;1.70;1.60;;;12.20;99.90;;;;;;4988841;28;20471;-35
2024/03/29 11:28:31;;;;;;;3.58;1.77;;;12.20;99.90;;;;;;4987179;28;20014;-34
2024/03/29 11:31:08;;;;;;;2.10;1.63;;;12.30;99.90;;;;;;4980721;28;20456;-34
2024/03/29 11:33:36;;;;;;;1.63;1.52;;;12.40;99.90;;;;;;4977297;28;20034;-34
2024/03/29 11:36:23;;;;;;;1.60;1.50;;;12.30;99.90;;;;;;4982641;28;20109;-35
2024/03/29 11:38:51;;;;;;;1.70;1.60;;;12.30;99.90;;;;;;4978524;28;20118;-35
2024/03/29 11:41:23;;;;;;;1.65;1.40;;;12.30;99.90;;;;;;4977989;28;20795;-37
2024/03/29 11:43:52;;;;;;;1.70;1.60;;;12.40;99.90;;;;;;5002240;28;20068;-32
2024/03/29 11:46:19;;;;;;;1.70;1.45;;;12.70;99.90;;;;;;4986066;28;20053;-32
2024/03/29 11:48:54;;;;;;;1.67;1.52;;;12.90;99.90;;;;;;4986405;28;20037;-42
2024/03/29 11:51:24;;;;;;;3.85;1.80;;;12.80;99.90;;;;;;4980440;28;20118;-42
2024/03/29 11:53:54;;;;;;;2.47;1.35;;;12.90;99.90;;;;;;4980672;28;20041;-42
2024/03/29 11:56:21;;;;;;;2.15;1.27;;;12.90;99.90;;;;;;4979899;28;20035;-41
2024/03/29 11:58:48;;;;;;;2.05;1.33;;;13.00;99.90;;;;;;4985583;28;20038;-41
2024/03/29 12:01:14;;;;;;;2.07;1.73;;;13.00;99.90;;;;;;4984087;28;20069;-41
2024/03/29 12:03:41;;;;;;;1.50;1.38;;;13.10;99.90;;;;;;4977498;28;20457;-41
2024/03/29 12:06:07;;;;;;;1.30;1.20;;;13.30;99.90;;;;;;4980465;28;20511;-35
2024/03/29 12:08:34;;;;;;;1.50;1.40;;;13.50;99.90;;;;;;4978066;28;20380;-40
2024/03/29 12:11:01;;;;;;;2.37;1.40;;;13.50;99.90;;;;;;4986502;28;20076;-40
2024/03/29 12:13:27;;;;;;;1.65;1.50;;;13.60;99.90;;;;;;4974365;28;20270;-39
2024/03/29 12:15:54;;;;;;;1.48;1.38;;;13.60;99.90;;;;;;4980219;28;20081;-42
2024/03/29 12:18:21;;;;;;;1.67;1.58;;;13.60;99.90;;;;;;4974100;28;20030;-41
2024/03/29 12:20:49;;;;;;;1.60;1.50;;;13.60;99.90;;;;;;4987037;28;20625;-38
2024/03/29 12:23:20;;;;;;;1.50;1.40;;;13.70;99.90;;;;;;4981421;28;20027;-36
2024/03/29 12:25:47;;;;;;;1.77;1.60;;;13.80;99.90;;;;;;4982998;28;20034;-40
2024/03/29 12:28:14;;;;;;;1.85;1.55;;;13.90;99.90;;;;;;4977059;28;20035;-40
2024/03/29 12:30:44;;;;;;;2.30;1.58;;;14.20;99.90;;;;;;4980693;28;20063;-42
2024/03/29 12:33:19;;;;;;;2.28;2.08;;;14.30;99.90;;;;;;4981724;28;20038;-40
2024/03/29 12:48:14;;;;;;;2.28;1.60;;;14.30;99.90;;;;;;5093923;27;20486;-40
2024/03/29 12:50:44;;;;;;;1.60;1.50;;;14.40;99.90;;;;;;5103492;28;20063;-40
2024/03/29 12:53:11;;;;;;;2.22;1.63;;;14.50;99.90;;;;;;5090743;28;20033;-42
2024/03/29 12:55:41;;;;;;;2.50;1.58;;;14.60;99.90;;;;;;5092929;28;20081;-42
2024/03/29 12:58:09;;;;;;;2.17;1.30;;;14.70;99.90;;;;;;5093080;28;20040;-41
2024/03/29 13:00:36;;;;;;;1.58;1.48;;;15.10;98.70;;;;;;5089021;27;20054;-39
2024/03/29 13:03:01;;;;;;;1.50;1.20;;;15.20;98.70;;;;;;5057024;28;20037;-40
2024/03/29 13:05:34;;;;;;;1.10;1.10;;;15.20;96.50;;;;;;5052980;28;20108;-39
2024/03/29 13:08:00;;;;;;;7.95;2.25;;;15.10;96.30;;;;;;5061669;28;20029;-41
2024/03/29 13:10:26;;;;;;;1.35;1.25;;;15.30;99.90;;;;;;5059096;28;20033;-41
2024/03/29 13:12:52;;;;;;;2.22;1.50;;;15.50;97.60;;;;;;5058475;28;20768;-42
2024/03/29 13:15:20;;;;;;;1.58;1.40;;;15.60;99.90;;;;;;5057887;28;20104;-41